Dane, Wisconsin
Current Conditions -  °F | °C
As of 10:15 AM on Sunday 25 Jan 2015 (Local Time) from KC29 Reporting Station
Overcast Overcast  
Wind Chill: 12°   Ceiling: 1500
Heat Index: 24°   Visibility: 10mi
Dew Point: 18°   Wind: 15mph
Humidity: 78%   Direction: 50°NE
Pressure: 29.91"   Gusts: NA
Location:  43.25°N, 89.5°W
Report Text: KC29 251615Z AUTO 05013KT 10SM OVC015 M04/M08 A2991 RMK AO1 T10421076
Loading
Personal Weather Stations






























Interactive Weather Map New forecast layout! Learn more

10-Day Weather Forecast

Advertisements
Track Severe Weather on mobile